createdAt,value
2022-10-09T00:04:53.585Z,6.38
2022-10-09T00:09:59.678Z,7.38
2022-10-09T00:15:04.790Z,7.47
2022-10-09T00:20:07.774Z,8.15
2022-10-09T00:25:12.750Z,7.25
2022-10-09T00:30:14.721Z,6.80
2022-10-09T00:35:18.343Z,9.35
2022-10-09T00:40:18.864Z,6.00
2022-10-09T00:45:22.028Z,7.75
2022-10-09T00:50:40.371Z,7.88
2022-10-09T00:55:50.148Z,7.78
2022-10-09T01:00:52.948Z,8.48
2022-10-09T01:05:58.128Z,6.53
2022-10-09T01:11:15.020Z,6.15
2022-10-09T01:16:26.981Z,7.35
2022-10-09T01:22:06.389Z,6.40
2022-10-09T01:27:10.122Z,6.72
2022-10-09T01:32:11.552Z,7.65
2022-10-09T01:37:18.073Z,6.53
2022-10-09T01:42:19.957Z,6.80
2022-10-09T01:47:21.917Z,6.85
2022-10-09T01:52:46.143Z,7.57
2022-10-09T02:02:47.905Z,6.75
2022-10-09T02:07:49.173Z,7.75
2022-10-09T02:13:26.169Z,6.72
2022-10-09T02:19:00.418Z,8.00
2022-10-09T02:29:20.124Z,10.18
2022-10-09T02:34:39.075Z,7.63
2022-10-09T02:39:42.232Z,7.93
2022-10-09T02:44:43.281Z,7.18
2022-10-09T02:49:45.340Z,9.20
2022-10-09T02:54:49.879Z,8.50
2022-10-09T02:59:49.111Z,9.00
2022-10-09T03:04:52.025Z,11.32
2022-10-09T03:09:53.533Z,6.60
2022-10-09T03:14:57.804Z,7.78
2022-10-09T03:20:05.863Z,12.60
2022-10-09T03:25:09.459Z,6.82
2022-10-09T03:30:10.480Z,7.60
2022-10-09T03:35:11.386Z,7.78
2022-10-09T03:40:20.220Z,8.93
2022-10-09T03:45:34.811Z,7.32
2022-10-09T03:56:03.505Z,9.07
2022-10-09T04:01:05.355Z,6.97
2022-10-09T04:06:14.675Z,7.60
2022-10-09T04:11:18.102Z,10.50
2022-10-09T04:16:28.651Z,7.10
2022-10-09T04:21:29.423Z,7.50
2022-10-09T04:26:30.786Z,7.35
2022-10-09T04:31:30.331Z,7.72
2022-10-09T04:36:44.254Z,6.82
2022-10-09T04:41:44.147Z,8.13
2022-10-09T04:46:45.320Z,7.63
2022-10-09T04:51:47.101Z,8.40
2022-10-09T04:56:46.959Z,9.50
2022-10-09T05:01:49.425Z,8.68
2022-10-09T05:06:54.524Z,9.00
2022-10-09T05:11:56.625Z,10.10
2022-10-09T05:17:13.025Z,10.13
2022-10-09T05:22:17.555Z,10.13
2022-10-09T05:27:19.455Z,9.82
2022-10-09T05:32:22.765Z,10.52
2022-10-09T05:37:26.238Z,11.75
2022-10-09T05:48:25.093Z,18.80
2022-10-09T05:53:36.903Z,11.40
2022-10-09T05:58:43.067Z,12.32
2022-10-09T06:03:45.965Z,14.68
2022-10-09T06:08:50.468Z,10.43
2022-10-09T06:13:54.207Z,11.75
2022-10-09T06:18:56.322Z,11.00
2022-10-09T06:23:58.070Z,9.90
2022-10-09T06:28:58.419Z,14.68
2022-10-09T06:34:05.690Z,13.23
2022-10-09T06:39:07.680Z,10.45
2022-10-09T06:44:16.568Z,10.93
2022-10-09T06:49:16.116Z,12.60
2022-10-09T06:54:19.004Z,12.82
2022-10-09T06:59:21.311Z,11.70
2022-10-09T07:04:20.081Z,14.63
2022-10-09T07:09:22.610Z,10.80
2022-10-09T07:14:21.875Z,11.18
2022-10-09T07:19:34.635Z,10.18
2022-10-09T07:24:34.003Z,14.20
2022-10-09T07:29:34.427Z,12.73
2022-10-09T07:34:37.204Z,9.45
2022-10-09T07:39:35.788Z,13.10
2022-10-09T07:44:34.555Z,11.27
2022-10-09T07:49:35.765Z,13.45
2022-10-09T07:54:40.715Z,9.48
2022-10-09T07:59:38.548Z,10.57
2022-10-09T08:04:37.419Z,9.60
2022-10-09T08:09:36.578Z,8.98
2022-10-09T08:14:38.643Z,9.50
2022-10-09T08:19:40.200Z,9.02
2022-10-09T08:24:47.305Z,10.25
2022-10-09T08:29:46.255Z,7.85
2022-10-09T08:34:47.015Z,8.23
2022-10-09T08:39:46.470Z,9.07
2022-10-09T08:44:53.373Z,9.65
2022-10-09T08:50:03.247Z,8.45
2022-10-09T08:55:11.668Z,8.70
2022-10-09T09:00:20.069Z,7.78
2022-10-09T09:05:27.746Z,8.02
2022-10-09T09:10:54.503Z,9.00
2022-10-09T09:16:16.755Z,8.45
2022-10-09T09:21:25.658Z,13.68
2022-10-09T09:26:23.773Z,11.10
2022-10-09T09:31:37.032Z,10.27
2022-10-09T09:37:03.910Z,5.78
2022-10-09T09:42:16.291Z,8.63
2022-10-09T09:47:45.752Z,11.15
2022-10-09T09:52:47.081Z,4.68
2022-10-09T09:57:47.643Z,6.75
2022-10-09T10:02:50.221Z,5.47
2022-10-09T10:07:51.884Z,6.30
2022-10-09T10:12:52.484Z,6.90
2022-10-09T10:17:58.136Z,4.40
2022-10-09T10:22:58.058Z,4.05
2022-10-09T10:28:08.378Z,7.82
2022-10-09T10:33:21.516Z,5.22
2022-10-09T10:38:48.552Z,7.22
2022-10-09T10:44:01.949Z,3.97
2022-10-09T10:49:03.702Z,8.15
2022-10-09T10:54:13.413Z,3.72
2022-10-09T10:59:22.280Z,7.60
2022-10-09T11:04:36.724Z,7.60
2022-10-09T11:10:07.847Z,3.95
2022-10-09T11:15:41.734Z,8.23
2022-10-09T11:20:47.330Z,8.18
2022-10-09T11:25:57.859Z,4.80
2022-10-09T11:31:21.803Z,5.95
2022-10-09T11:36:22.662Z,4.35
2022-10-09T11:41:23.968Z,6.10
2022-10-09T11:46:32.909Z,6.13
2022-10-09T11:51:36.658Z,6.78
2022-10-09T11:56:35.145Z,7.28
2022-10-09T12:01:41.905Z,4.57
2022-10-09T12:06:52.520Z,5.38
2022-10-09T12:12:09.264Z,4.43
2022-10-09T12:17:33.472Z,7.93
2022-10-09T12:22:37.777Z,4.18
2022-10-09T12:27:39.845Z,4.88
2022-10-09T12:32:42.786Z,4.70
2022-10-09T12:37:45.191Z,6.00
2022-10-09T12:42:46.205Z,8.05
2022-10-09T12:47:47.906Z,3.80
2022-10-09T12:52:58.248Z,6.10
2022-10-09T12:58:03.557Z,5.90
2022-10-09T13:03:04.772Z,5.53
2022-10-09T13:08:21.484Z,4.57
2022-10-09T13:13:25.730Z,3.92
2022-10-09T13:18:23.452Z,4.32
2022-10-09T13:23:34.020Z,10.52
2022-10-09T13:28:34.575Z,4.28
2022-10-09T13:33:40.764Z,6.78
2022-10-09T13:38:39.682Z,5.05
2022-10-09T13:43:40.601Z,5.13
2022-10-09T13:48:42.592Z,4.90
2022-10-09T13:53:43.328Z,3.70
2022-10-09T13:58:42.184Z,4.20
2022-10-09T14:03:40.978Z,5.80
2022-10-09T14:08:39.607Z,4.32
2022-10-09T14:13:41.294Z,4.68
2022-10-09T14:18:42.144Z,4.15
2022-10-09T14:23:42.616Z,6.28
2022-10-09T14:28:46.241Z,6.28
2022-10-09T14:33:45.211Z,6.72
2022-10-09T14:38:43.789Z,4.10
2022-10-09T14:43:42.034Z,4.53
2022-10-09T14:48:42.812Z,5.72
2022-10-09T14:53:43.768Z,4.57
2022-10-09T14:58:44.466Z,10.10
2022-10-09T15:03:46.266Z,5.68
2022-10-09T15:08:49.703Z,4.32
2022-10-09T15:18:56.033Z,4.18
2022-10-09T15:23:57.953Z,7.10
2022-10-09T15:28:55.877Z,5.35
2022-10-09T15:34:11.362Z,4.75
2022-10-09T15:39:33.162Z,7.65
2022-10-09T15:50:24.466Z,10.05
2022-10-09T15:55:24.903Z,8.77
2022-10-09T16:00:35.855Z,11.55
2022-10-09T16:06:09.132Z,13.98
2022-10-09T16:11:25.301Z,10.45
2022-10-09T16:16:38.238Z,6.82
2022-10-09T16:21:37.980Z,13.13
2022-10-09T16:26:47.488Z,10.48
2022-10-09T16:31:57.885Z,11.43
2022-10-09T16:42:43.653Z,8.18
2022-10-09T16:54:01.093Z,8.52
2022-10-09T16:59:38.706Z,10.68
2022-10-09T17:04:52.965Z,12.10
2022-10-09T17:10:09.921Z,13.43
2022-10-09T17:15:54.419Z,20.08
2022-10-09T17:21:18.164Z,18.17
2022-10-09T17:26:23.656Z,38.25
2022-10-09T17:31:37.141Z,23.95
2022-10-09T17:36:48.408Z,39.40
2022-10-09T17:47:10.550Z,19.75
2022-10-09T17:57:43.347Z,19.77
2022-10-09T18:02:41.911Z,17.33
2022-10-09T18:07:42.426Z,16.15
2022-10-09T18:13:22.251Z,16.15
2022-10-09T18:18:41.836Z,21.63
2022-10-09T18:23:42.159Z,19.45
2022-10-09T18:28:59.942Z,17.70
2022-10-09T18:33:59.435Z,15.82
2022-10-09T18:39:11.162Z,19.30
2022-10-09T18:44:20.380Z,15.30
2022-10-09T18:49:33.061Z,16.90
2022-10-09T18:54:31.178Z,27.98
2022-10-09T18:59:31.920Z,13.20
2022-10-09T19:04:34.918Z,14.23
2022-10-09T19:16:10.172Z,13.80
2022-10-09T19:21:14.347Z,12.70
2022-10-09T19:32:00.062Z,10.50
2022-10-09T19:36:59.570Z,8.40
2022-10-09T19:41:58.482Z,8.60
2022-10-09T19:49:38.934Z,7.30
2022-10-09T19:52:33.107Z,10.15
2022-10-09T19:58:09.263Z,7.05
2022-10-09T20:08:13.980Z,10.60
2022-10-09T20:13:42.910Z,9.50
2022-10-09T20:18:55.384Z,6.60
2022-10-09T20:24:00.588Z,12.68
2022-10-09T20:29:16.579Z,9.52
2022-10-09T20:34:34.898Z,14.40
2022-10-09T20:39:38.180Z,12.68
2022-10-09T20:44:36.210Z,8.70
2022-10-09T20:49:36.600Z,15.20
2022-10-09T20:54:37.844Z,10.23
2022-10-09T20:59:36.974Z,13.73
2022-10-09T21:04:34.839Z,15.80
2022-10-09T21:09:33.509Z,16.13
2022-10-09T21:14:33.696Z,16.67
2022-10-09T21:19:31.796Z,16.77
2022-10-09T21:24:33.552Z,16.02
2022-10-09T21:29:31.297Z,13.88
2022-10-09T21:34:42.038Z,14.93
2022-10-09T21:39:44.175Z,13.60
2022-10-09T21:44:44.320Z,9.18
2022-10-09T21:49:42.181Z,8.32
2022-10-09T21:54:42.129Z,12.18
2022-10-09T21:59:41.437Z,8.73
2022-10-09T22:04:41.787Z,9.77
2022-10-09T22:09:42.592Z,7.93
2022-10-09T22:14:43.680Z,15.60
2022-10-09T22:19:41.512Z,9.35
2022-10-09T22:24:40.027Z,12.20
2022-10-09T22:29:38.494Z,6.93
2022-10-09T22:34:38.712Z,9.43
2022-10-09T22:39:36.715Z,5.82
2022-10-09T22:44:39.047Z,5.80
2022-10-09T22:49:37.301Z,5.93
2022-10-09T22:54:36.095Z,6.60
2022-10-09T22:59:37.079Z,7.78
2022-10-09T23:04:38.101Z,6.97
2022-10-09T23:09:38.685Z,6.70
2022-10-09T23:14:37.515Z,6.65
2022-10-09T23:19:44.557Z,9.75
2022-10-09T23:24:46.387Z,6.35
2022-10-09T23:29:52.058Z,8.60
2022-10-09T23:34:56.056Z,7.72
2022-10-09T23:40:02.826Z,6.25
2022-10-09T23:45:04.196Z,12.27
2022-10-09T23:50:07.045Z,8.90
2022-10-09T23:55:08.972Z,6.55
